Squamish Youth Triathlon 2018

Sunday, May 6, 2018 9:00 AM (GMT-7) - Final results

Race info
Sport: Triathlon
Location: Squamish, BC, Canada
Start type: Individual start
Racers: 53
Timing mode: Multi-device splits
Timed on: iPad
Timed with: Webscorer PRO 2.9
Updated: Sunday, May 13, 2018 4:33 PM (GMT-7)
Organized by: Squamish Youth Triathlon
Race website: www.squamishyouthtri.ca
Race notes
Updated results which reflect corrections resulting from a timing error affecting a few racers.
Show more Show less

Contact organizer

Use this form to send an email to the organizer.

Your name
Your email address
Confirm email address
Message to organizer
Send

Place Bib Racer name Affiliation Category Gender Finish time
1237The DDTsSquamish Relay 10-11 yearsF/M 23:59.3--100%18.95%17.49%
2163Mia RodgerNorth Vancouver Female 10-11 yearsF 24:20.9+0:21.6+1.50%98.52%17.73%16.26%
3203Bayden SmithNorth Vancouver Male 10-11 yearsM 24:43.6+0:44.3+3.08%97.01%16.45%14.96%
4240Garibaldi SpeedersGaribaldi Highlands Relay 10-11 yearsF/M 24:59.7+1:00.4+4.20%95.97%15.55%14.03%
5178Talia WittenbergWhistler Female 10-11 yearsF 25:08.7+1:09.4+4.82%95.40%15.04%13.52%
6166Kyle LowenbergerBrackendale Male 10-11 yearsM 25:34.2+1:34.9+6.59%93.81%13.60%12.06%
7170Brodie BainSquamish Male 10-11 yearsM 25:37.5+1:38.2+6.82%93.61%13.42%11.87%
8185Hunter DawsonSquamish Male 10-11 yearsM 25:41.9+1:42.6+7.13%93.35%13.17%11.61%
9171Spencer ToddSquamish Male 10-11 yearsM 26:02.6+2:03.3+8.57%92.11%12.00%10.43%
10190Avery KrummeSquamish Female 10-11 yearsF 26:18.4+2:19.1+9.66%91.19%11.11%9.52%
11189Noah KrummeSquamish Male 10-11 yearsM 26:24.2+2:24.9+10.07%90.85%10.79%9.19%
12159Kinley EmersonSquamish Female 10-11 yearsF 26:39.9+2:40.6+11.16%89.96%9.90%8.29%
13158Elias LummackSquamish Male 10-11 yearsM 26:49.1+2:49.8+11.80%89.45%9.38%7.76%
14191Tessa ClarkeGaribaldi Highlands Female 10-11 yearsF 26:50.2+2:50.9+11.87%89.39%9.32%7.70%
15179James LaurieGaribaldi Highlands Male 10-11 yearsM 26:53.6+2:54.3+12.11%89.20%9.13%7.50%
16184Cole DickauSquamish Male 10-11 yearsM 27:00.4+3:01.1+12.58%88.82%8.75%7.11%
17177Cadence MurraySquamish Female 10-11 yearsF 27:15.6+3:16.3+13.64%88.00%7.89%6.24%
18238M&M&MGaribaldi Highlands Relay 10-11 yearsF/M 27:22.2+3:22.9+14.10%87.64%7.52%5.86%
19175Daniel MosesGaribaldi Highlands Male 10-11 yearsM 27:23.3+3:24.0+14.17%87.59%7.46%5.80%
20193Julia PotyokNorth Vancouver Female 10-11 yearsF 28:01.3+4:02.0+16.81%85.61%5.32%3.62%
21172Hadley ToddSquamish Female 10-11 yearsF 28:03.1+4:03.8+16.94%85.51%5.22%3.52%
22161Kyle ChapieskiDelta Male 10-11 yearsM 28:03.2+4:03.9+16.95%85.51%5.21%3.51%
23186Spencer WardleVancouver Male 10-11 yearsM 28:15.3+4:16.0+17.79%84.90%4.53%2.82%
24204Zacharias ArensonVancouver Male 10-11 yearsM 28:15.6+4:16.3+17.81%84.88%4.51%2.80%
25196Adam GazdikSquamish Male 10-11 yearsM 28:40.6+4:41.3+19.54%83.65%3.11%1.37%
26164Ayla RodgerNorth Vancouver Female 10-11 yearsF 28:57.8+4:58.5+20.74%82.82%2.14%0.38%
27174Madilynn FechoSquamish Female 10-11 yearsF 29:11.2+5:11.9+21.67%82.19%1.38%-0.38%
28187William LevisSquamish Male 10-11 yearsM 29:13.0+5:13.7+21.80%82.10%1.28%-0.49%
29165Elijah OtisSquamish Male 10-11 yearsM 29:13.3+5:14.0+21.82%82.09%1.26%-0.50%
30180Lukyn HorsleySquamish Male 10-11 yearsM 29:27.3+5:28.0+22.79%81.44%0.48%-1.31%
31169Brydon Harris-IrvineNorth Vancouver Female 10-11 yearsF 29:39.9+5:40.6+23.66%80.86%-0.23%-2.03%
32188Kate YarrowBrackendale Female 10-11 yearsF 30:06.5+6:07.2+25.51%79.67%-1.73%-3.55%
33239Double TroubleGaribalsi Highlands Relay 10-11 yearsF/M 30:06.7+6:07.4+25.53%79.66%-1.74%-3.57%
34176Mieko PatemanSquamish Female 10-11 yearsF 30:08.0+6:08.7+25.62%79.61%-1.82%-3.64%
35194Graydon ManshipGaribaldi Highlands Male 10-11 yearsM 30:30.7+6:31.4+27.19%78.62%-3.09%-4.94%
36192Sam BoaBrackendale Male 10-11 yearsM 30:54.3+6:55.0+28.83%77.62%-4.42%-6.29%
37173Andrew MorrisSquamish Male 10-11 yearsM 31:01.3+7:02.0+29.32%77.33%-4.82%-6.70%
38168Madeleine LawtonGaribaldi Highlands Female 10-11 yearsF 31:19.8+7:20.5+30.61%76.57%-5.86%-7.76%
39183Evie ChamberlainSquamish Female 10-11 yearsF 31:58.4+7:59.1+33.29%75.03%-8.03%-9.97%
40162Bretton WinstanleySquamish Female 10-11 yearsF 32:16.2+8:16.9+34.52%74.34%-9.04%-10.99%
41200Zadie WatersGaribaldi Highlands Female 10-11 yearsF 32:17.6+8:18.3+34.62%74.28%-9.11%-11.07%
42197Hannah MooreBrackendale Female 10-11 yearsF 33:03.5+9:04.2+37.81%72.56%-11.70%-13.70%
43205Brexton DonnerSquamish Male 10-11 yearsM 33:20.6+9:21.3+39.00%71.94%-12.66%-14.68%
44207Hunter HeistermanGaribaldi Highlands Male 10-11 yearsM 33:35.8+9:36.5+40.05%71.40%-13.52%-15.55%
45167Melissa PascuzziSquamish Female 10-11 yearsF 33:50.3+9:51.0+41.06%70.89%-14.34%-16.38%
46195Rian WaiteSquamish Female 10-11 yearsF 34:04.3+10:05.0+42.03%70.41%-15.12%-17.19%
47202Madelyn AugustineSquamish Female 10-11 yearsF 34:06.5+10:07.2+42.19%70.33%-15.25%-17.31%
48181Annika GouldSquamish Female 10-11 yearsF 34:57.0+10:57.7+45.70%68.64%-18.09%-20.21%
49206Cash CooperBrackendale Male 10-11 yearsM 35:49.9+11:50.6+49.37%66.95%-21.07%-23.24%
50182Alexis HorthSquamish Female 10-11 yearsF 37:17.8+13:18.5+55.48%64.32%-26.02%-28.28%
51199Rayhan AkbanieVancouver Male 10-11 yearsM 38:43.8+14:44.5+61.45%61.94%-30.86%-33.21%
52160Riley FentonGaribaldi Highlands Male 10-11 yearsM 39:22.8+15:23.5+64.16%60.92%-33.06%-35.44%
-198Ella DunnGaribaldi Highlands Female 10-11 yearsF DNF-----